sensor_id;sensor_type;location;lat;lon;timestamp;P1;durP1;ratioP1;P2;durP2;ratioP2
69912;SDS011;57198;52.082;5.108;2024-02-21T00:01:15;10.93;;;3.38;;
69912;SDS011;57198;52.082;5.108;2024-02-21T00:03:43;8.32;;;3.17;;
69912;SDS011;57198;52.082;5.108;2024-02-21T00:06:10;13.40;;;3.63;;
69912;SDS011;57198;52.082;5.108;2024-02-21T00:08:38;9.55;;;3.67;;
69912;SDS011;57198;52.082;5.108;2024-02-21T00:11:05;10.25;;;3.97;;
69912;SDS011;57198;52.082;5.108;2024-02-21T00:13:33;11.02;;;3.78;;
69912;SDS011;57198;52.082;5.108;2024-02-21T00:16:00;15.10;;;3.95;;
69912;SDS011;57198;52.082;5.108;2024-02-21T00:18:28;13.80;;;4.20;;
69912;SDS011;57198;52.082;5.108;2024-02-21T00:20:56;6.38;;;3.22;;
69912;SDS011;57198;52.082;5.108;2024-02-21T00:23:23;12.05;;;3.33;;
69912;SDS011;57198;52.082;5.108;2024-02-21T00:25:50;12.35;;;3.55;;
69912;SDS011;57198;52.082;5.108;2024-02-21T00:28:18;11.80;;;3.35;;
69912;SDS011;57198;52.082;5.108;2024-02-21T00:30:45;10.20;;;3.22;;
69912;SDS011;57198;52.082;5.108;2024-02-21T00:33:14;13.07;;;3.85;;
69912;SDS011;57198;52.082;5.108;2024-02-21T00:35:41;10.80;;;3.00;;
69912;SDS011;57198;52.082;5.108;2024-02-21T00:38:09;14.57;;;3.88;;
69912;SDS011;57198;52.082;5.108;2024-02-21T00:40:36;11.25;;;3.28;;
69912;SDS011;57198;52.082;5.108;2024-02-21T00:43:03;9.07;;;3.15;;
69912;SDS011;57198;52.082;5.108;2024-02-21T00:45:31;7.70;;;3.20;;
69912;SDS011;57198;52.082;5.108;2024-02-21T00:47:58;12.95;;;4.15;;
69912;SDS011;57198;52.082;5.108;2024-02-21T00:50:26;13.10;;;3.10;;
69912;SDS011;57198;52.082;5.108;2024-02-21T00:52:53;16.33;;;3.47;;
69912;SDS011;57198;52.082;5.108;2024-02-21T00:55:20;11.40;;;3.60;;
69912;SDS011;57198;52.082;5.108;2024-02-21T00:57:48;9.70;;;3.35;;
69912;SDS011;57198;52.082;5.108;2024-02-21T01:00:15;10.98;;;3.70;;
69912;SDS011;57198;52.082;5.108;2024-02-21T01:02:43;9.20;;;3.25;;
69912;SDS011;57198;52.082;5.108;2024-02-21T01:05:10;9.30;;;3.85;;
69912;SDS011;57198;52.082;5.108;2024-02-21T01:07:37;14.43;;;3.72;;
69912;SDS011;57198;52.082;5.108;2024-02-21T01:10:05;9.07;;;3.63;;
69912;SDS011;57198;52.082;5.108;2024-02-21T01:12:33;12.80;;;3.20;;
69912;SDS011;57198;52.082;5.108;2024-02-21T01:15:00;10.40;;;3.40;;
69912;SDS011;57198;52.082;5.108;2024-02-21T01:17:27;10.20;;;3.15;;
69912;SDS011;57198;52.082;5.108;2024-02-21T01:19:55;15.38;;;3.78;;
69912;SDS011;57198;52.082;5.108;2024-02-21T01:22:22;12.35;;;3.53;;
69912;SDS011;57198;52.082;5.108;2024-02-21T01:24:49;14.35;;;3.65;;
69912;SDS011;57198;52.082;5.108;2024-02-21T01:27:17;11.68;;;3.85;;
69912;SDS011;57198;52.082;5.108;2024-02-21T01:29:45;13.25;;;3.45;;
69912;SDS011;57198;52.082;5.108;2024-02-21T01:32:14;10.35;;;3.20;;
69912;SDS011;57198;52.082;5.108;2024-02-21T01:34:41;13.50;;;4.35;;
69912;SDS011;57198;52.082;5.108;2024-02-21T01:37:08;9.45;;;3.80;;
69912;SDS011;57198;52.082;5.108;2024-02-21T01:39:36;15.30;;;4.22;;
69912;SDS011;57198;52.082;5.108;2024-02-21T01:42:04;10.70;;;3.90;;
69912;SDS011;57198;52.082;5.108;2024-02-21T01:44:31;12.88;;;4.05;;
69912;SDS011;57198;52.082;5.108;2024-02-21T01:46:59;15.68;;;4.00;;
69912;SDS011;57198;52.082;5.108;2024-02-21T01:49:26;12.07;;;4.32;;
69912;SDS011;57198;52.082;5.108;2024-02-21T01:51:54;14.57;;;4.38;;
69912;SDS011;57198;52.082;5.108;2024-02-21T01:54:21;15.40;;;5.10;;
69912;SDS011;57198;52.082;5.108;2024-02-21T01:56:49;12.60;;;4.20;;
69912;SDS011;57198;52.082;5.108;2024-02-21T01:59:16;11.82;;;4.82;;
69912;SDS011;57198;52.082;5.108;2024-02-21T02:01:43;7.20;;;3.85;;
69912;SDS011;57198;52.082;5.108;2024-02-21T02:04:11;11.25;;;5.00;;
69912;SDS011;57198;52.082;5.108;2024-02-21T02:06:40;13.85;;;4.45;;
69912;SDS011;57198;52.082;5.108;2024-02-21T02:09:08;14.30;;;5.45;;
69912;SDS011;57198;52.082;5.108;2024-02-21T02:11:35;12.57;;;4.03;;
69912;SDS011;57198;52.082;5.108;2024-02-21T02:14:03;11.43;;;4.60;;
69912;SDS011;57198;52.082;5.108;2024-02-21T02:16:30;15.05;;;5.40;;
69912;SDS011;57198;52.082;5.108;2024-02-21T02:18:58;9.50;;;5.07;;
69912;SDS011;57198;52.082;5.108;2024-02-21T02:21:29;11.93;;;4.65;;
69912;SDS011;57198;52.082;5.108;2024-02-21T02:23:57;11.02;;;5.20;;
69912;SDS011;57198;52.082;5.108;2024-02-21T02:26:24;13.70;;;5.00;;
69912;SDS011;57198;52.082;5.108;2024-02-21T02:28:51;11.10;;;4.82;;
69912;SDS011;57198;52.082;5.108;2024-02-21T02:31:19;11.23;;;4.53;;
69912;SDS011;57198;52.082;5.108;2024-02-21T02:33:46;11.45;;;4.93;;
69912;SDS011;57198;52.082;5.108;2024-02-21T02:36:15;13.55;;;5.18;;
69912;SDS011;57198;52.082;5.108;2024-02-21T02:38:44;15.30;;;5.20;;
69912;SDS011;57198;52.082;5.108;2024-02-21T02:41:11;13.98;;;5.05;;
69912;SDS011;57198;52.082;5.108;2024-02-21T02:43:38;14.60;;;4.68;;
69912;SDS011;57198;52.082;5.108;2024-02-21T02:46:06;13.32;;;5.20;;
69912;SDS011;57198;52.082;5.108;2024-02-21T02:48:33;11.25;;;5.07;;
69912;SDS011;57198;52.082;5.108;2024-02-21T02:51:00;12.68;;;5.05;;
69912;SDS011;57198;52.082;5.108;2024-02-21T02:53:28;13.73;;;5.18;;
69912;SDS011;57198;52.082;5.108;2024-02-21T02:55:56;10.48;;;4.68;;
69912;SDS011;57198;52.082;5.108;2024-02-21T02:58:23;9.05;;;4.50;;
69912;SDS011;57198;52.082;5.108;2024-02-21T03:00:50;15.15;;;5.63;;
69912;SDS011;57198;52.082;5.108;2024-02-21T03:03:18;9.32;;;4.90;;
69912;SDS011;57198;52.082;5.108;2024-02-21T03:05:46;12.90;;;5.05;;
69912;SDS011;57198;52.082;5.108;2024-02-21T03:08:14;14.93;;;4.80;;
69912;SDS011;57198;52.082;5.108;2024-02-21T03:10:41;10.57;;;4.80;;
69912;SDS011;57198;52.082;5.108;2024-02-21T03:13:09;15.00;;;5.03;;
69912;SDS011;57198;52.082;5.108;2024-02-21T03:15:36;11.23;;;4.70;;
69912;SDS011;57198;52.082;5.108;2024-02-21T03:18:03;10.32;;;5.55;;
69912;SDS011;57198;52.082;5.108;2024-02-21T03:20:31;11.68;;;4.72;;
69912;SDS011;57198;52.082;5.108;2024-02-21T03:22:58;10.23;;;4.78;;
69912;SDS011;57198;52.082;5.108;2024-02-21T03:25:26;9.55;;;5.28;;
69912;SDS011;57198;52.082;5.108;2024-02-21T03:27:53;10.77;;;5.03;;
69912;SDS011;57198;52.082;5.108;2024-02-21T03:30:20;11.85;;;4.60;;
69912;SDS011;57198;52.082;5.108;2024-02-21T03:32:48;11.55;;;5.05;;
69912;SDS011;57198;52.082;5.108;2024-02-21T03:35:15;11.18;;;5.63;;
69912;SDS011;57198;52.082;5.108;2024-02-21T03:37:44;12.82;;;5.43;;
69912;SDS011;57198;52.082;5.108;2024-02-21T03:40:12;11.05;;;4.78;;
69912;SDS011;57198;52.082;5.108;2024-02-21T03:42:39;12.38;;;5.15;;
69912;SDS011;57198;52.082;5.108;2024-02-21T03:45:07;6.88;;;4.55;;
69912;SDS011;57198;52.082;5.108;2024-02-21T03:47:34;9.15;;;4.95;;
69912;SDS011;57198;52.082;5.108;2024-02-21T03:50:01;10.50;;;4.32;;
69912;SDS011;57198;52.082;5.108;2024-02-21T03:52:29;11.52;;;4.07;;
69912;SDS011;57198;52.082;5.108;2024-02-21T03:54:57;10.15;;;4.70;;
69912;SDS011;57198;52.082;5.108;2024-02-21T03:57:24;6.82;;;4.00;;
69912;SDS011;57198;52.082;5.108;2024-02-21T03:59:52;9.75;;;3.95;;
69912;SDS011;57198;52.082;5.108;2024-02-21T04:02:19;7.20;;;4.70;;
69912;SDS011;57198;52.082;5.108;2024-02-21T04:04:46;12.50;;;5.53;;
69912;SDS011;57198;52.082;5.108;2024-02-21T04:07:14;7.05;;;4.70;;
69912;SDS011;57198;52.082;5.108;2024-02-21T04:09:42;10.20;;;4.65;;
69912;SDS011;57198;52.082;5.108;2024-02-21T04:12:10;10.00;;;4.32;;
69912;SDS011;57198;52.082;5.108;2024-02-21T04:14:37;13.13;;;5.28;;
69912;SDS011;57198;52.082;5.108;2024-02-21T04:17:08;5.63;;;4.60;;
69912;SDS011;57198;52.082;5.108;2024-02-21T04:19:35;12.63;;;4.82;;
69912;SDS011;57198;52.082;5.108;2024-02-21T04:22:03;9.23;;;5.18;;
69912;SDS011;57198;52.082;5.108;2024-02-21T04:24:30;8.15;;;4.70;;
69912;SDS011;57198;52.082;5.108;2024-02-21T04:26:58;9.98;;;4.68;;
69912;SDS011;57198;52.082;5.108;2024-02-21T04:29:25;11.07;;;4.65;;
69912;SDS011;57198;52.082;5.108;2024-02-21T04:31:54;11.20;;;5.82;;
69912;SDS011;57198;52.082;5.108;2024-02-21T04:34:21;9.18;;;5.10;;
69912;SDS011;57198;52.082;5.108;2024-02-21T04:36:49;11.63;;;5.78;;
69912;SDS011;57198;52.082;5.108;2024-02-21T04:39:16;8.82;;;5.40;;
69912;SDS011;57198;52.082;5.108;2024-02-21T04:41:43;9.95;;;5.32;;
69912;SDS011;57198;52.082;5.108;2024-02-21T04:44:11;9.20;;;6.07;;
69912;SDS011;57198;52.082;5.108;2024-02-21T04:46:41;11.77;;;5.53;;
69912;SDS011;57198;52.082;5.108;2024-02-21T04:49:09;7.80;;;5.85;;
69912;SDS011;57198;52.082;5.108;2024-02-21T04:51:36;10.38;;;5.93;;
69912;SDS011;57198;52.082;5.108;2024-02-21T04:54:03;12.30;;;5.10;;
69912;SDS011;57198;52.082;5.108;2024-02-21T04:56:31;7.78;;;5.53;;
69912;SDS011;57198;52.082;5.108;2024-02-21T04:58:58;13.02;;;5.85;;
69912;SDS011;57198;52.082;5.108;2024-02-21T05:01:26;9.57;;;4.97;;
69912;SDS011;57198;52.082;5.108;2024-02-21T05:03:53;8.60;;;5.45;;
69912;SDS011;57198;52.082;5.108;2024-02-21T05:06:20;10.88;;;5.88;;
69912;SDS011;57198;52.082;5.108;2024-02-21T05:08:48;8.32;;;6.25;;
69912;SDS011;57198;52.082;5.108;2024-02-21T05:11:15;12.63;;;6.38;;
69912;SDS011;57198;52.082;5.108;2024-02-21T05:13:42;9.90;;;6.13;;
69912;SDS011;57198;52.082;5.108;2024-02-21T05:16:10;9.77;;;6.60;;
69912;SDS011;57198;52.082;5.108;2024-02-21T05:18:37;12.40;;;5.90;;
69912;SDS011;57198;52.082;5.108;2024-02-21T05:21:05;8.98;;;6.90;;
69912;SDS011;57198;52.082;5.108;2024-02-21T05:23:32;9.18;;;7.35;;
69912;SDS011;57198;52.082;5.108;2024-02-21T05:25:59;9.73;;;5.50;;
69912;SDS011;57198;52.082;5.108;2024-02-21T05:28:27;14.88;;;5.72;;
69912;SDS011;57198;52.082;5.108;2024-02-21T05:30:54;13.50;;;7.50;;
69912;SDS011;57198;52.082;5.108;2024-02-21T05:33:21;10.25;;;6.57;;
69912;SDS011;57198;52.082;5.108;2024-02-21T05:35:49;15.48;;;7.70;;
69912;SDS011;57198;52.082;5.108;2024-02-21T05:38:17;8.18;;;6.50;;
69912;SDS011;57198;52.082;5.108;2024-02-21T05:40:44;8.75;;;6.82;;
69912;SDS011;57198;52.082;5.108;2024-02-21T05:43:13;11.57;;;7.00;;
69912;SDS011;57198;52.082;5.108;2024-02-21T05:45:40;10.63;;;7.20;;
69912;SDS011;57198;52.082;5.108;2024-02-21T05:48:07;8.95;;;6.32;;
69912;SDS011;57198;52.082;5.108;2024-02-21T05:50:35;9.27;;;6.22;;
69912;SDS011;57198;52.082;5.108;2024-02-21T05:53:03;11.68;;;6.88;;
69912;SDS011;57198;52.082;5.108;2024-02-21T05:55:30;13.63;;;8.07;;
69912;SDS011;57198;52.082;5.108;2024-02-21T05:57:58;13.75;;;7.05;;
69912;SDS011;57198;52.082;5.108;2024-02-21T06:00:25;11.95;;;6.70;;
69912;SDS011;57198;52.082;5.108;2024-02-21T06:02:52;17.33;;;7.72;;
69912;SDS011;57198;52.082;5.108;2024-02-21T06:05:20;14.35;;;7.53;;
69912;SDS011;57198;52.082;5.108;2024-02-21T06:07:47;8.88;;;6.38;;
69912;SDS011;57198;52.082;5.108;2024-02-21T06:10:15;13.65;;;7.80;;
69912;SDS011;57198;52.082;5.108;2024-02-21T06:12:43;10.40;;;7.47;;
69912;SDS011;57198;52.082;5.108;2024-02-21T06:15:10;12.63;;;8.13;;
69912;SDS011;57198;52.082;5.108;2024-02-21T06:17:39;13.18;;;7.45;;
69912;SDS011;57198;52.082;5.108;2024-02-21T06:20:06;15.48;;;8.13;;
69912;SDS011;57198;52.082;5.108;2024-02-21T06:22:34;18.27;;;8.88;;
69912;SDS011;57198;52.082;5.108;2024-02-21T06:25:01;11.90;;;8.55;;
69912;SDS011;57198;52.082;5.108;2024-02-21T06:27:29;15.52;;;8.80;;
69912;SDS011;57198;52.082;5.108;2024-02-21T06:29:56;15.93;;;8.80;;
69912;SDS011;57198;52.082;5.108;2024-02-21T06:32:23;14.88;;;8.90;;
69912;SDS011;57198;52.082;5.108;2024-02-21T06:34:51;16.02;;;8.90;;
69912;SDS011;57198;52.082;5.108;2024-02-21T06:37:19;13.15;;;7.50;;
69912;SDS011;57198;52.082;5.108;2024-02-21T06:39:46;12.13;;;7.35;;
69912;SDS011;57198;52.082;5.108;2024-02-21T06:42:13;15.20;;;8.35;;
69912;SDS011;57198;52.082;5.108;2024-02-21T06:44:41;14.95;;;7.43;;
69912;SDS011;57198;52.082;5.108;2024-02-21T06:47:08;15.18;;;8.45;;
69912;SDS011;57198;52.082;5.108;2024-02-21T06:49:35;18.85;;;8.50;;
69912;SDS011;57198;52.082;5.108;2024-02-21T06:52:04;16.85;;;9.07;;
69912;SDS011;57198;52.082;5.108;2024-02-21T06:54:31;13.02;;;8.05;;
69912;SDS011;57198;52.082;5.108;2024-02-21T06:56:59;11.45;;;7.70;;
69912;SDS011;57198;52.082;5.108;2024-02-21T06:59:27;17.58;;;7.93;;
69912;SDS011;57198;52.082;5.108;2024-02-21T07:01:54;16.77;;;7.88;;
69912;SDS011;57198;52.082;5.108;2024-02-21T07:04:22;19.30;;;9.57;;
69912;SDS011;57198;52.082;5.108;2024-02-21T07:06:50;15.43;;;8.45;;
69912;SDS011;57198;52.082;5.108;2024-02-21T07:09:18;13.23;;;8.38;;
69912;SDS011;57198;52.082;5.108;2024-02-21T07:11:45;15.93;;;8.23;;
69912;SDS011;57198;52.082;5.108;2024-02-21T07:14:14;15.07;;;8.88;;
69912;SDS011;57198;52.082;5.108;2024-02-21T07:16:41;19.20;;;9.65;;
69912;SDS011;57198;52.082;5.108;2024-02-21T07:19:09;18.38;;;8.88;;
69912;SDS011;57198;52.082;5.108;2024-02-21T07:21:36;20.35;;;8.77;;
69912;SDS011;57198;52.082;5.108;2024-02-21T07:24:04;20.63;;;9.55;;
69912;SDS011;57198;52.082;5.108;2024-02-21T07:26:31;14.77;;;8.70;;
69912;SDS011;57198;52.082;5.108;2024-02-21T07:28:59;17.40;;;9.02;;
69912;SDS011;57198;52.082;5.108;2024-02-21T07:31:27;15.43;;;9.23;;
69912;SDS011;57198;52.082;5.108;2024-02-21T07:33:54;18.40;;;9.70;;
69912;SDS011;57198;52.082;5.108;2024-02-21T07:36:30;17.30;;;9.45;;
69912;SDS011;57198;52.082;5.108;2024-02-21T07:38:58;13.23;;;8.40;;
69912;SDS011;57198;52.082;5.108;2024-02-21T07:41:25;14.90;;;8.93;;
69912;SDS011;57198;52.082;5.108;2024-02-21T07:43:54;15.68;;;8.60;;
69912;SDS011;57198;52.082;5.108;2024-02-21T07:46:22;17.50;;;8.65;;
69912;SDS011;57198;52.082;5.108;2024-02-21T07:48:50;14.70;;;8.88;;
69912;SDS011;57198;52.082;5.108;2024-02-21T07:51:17;16.60;;;9.32;;
69912;SDS011;57198;52.082;5.108;2024-02-21T07:53:45;16.33;;;8.23;;
69912;SDS011;57198;52.082;5.108;2024-02-21T07:56:14;17.02;;;8.48;;
69912;SDS011;57198;52.082;5.108;2024-02-21T07:58:42;20.65;;;9.95;;
69912;SDS011;57198;52.082;5.108;2024-02-21T08:01:10;16.75;;;9.77;;
69912;SDS011;57198;52.082;5.108;2024-02-21T08:03:37;22.80;;;9.93;;
69912;SDS011;57198;52.082;5.108;2024-02-21T08:06:04;16.30;;;9.73;;
69912;SDS011;57198;52.082;5.108;2024-02-21T08:08:32;15.52;;;9.00;;
69912;SDS011;57198;52.082;5.108;2024-02-21T08:11:00;16.02;;;10.30;;
69912;SDS011;57198;52.082;5.108;2024-02-21T08:13:27;15.38;;;8.75;;
69912;SDS011;57198;52.082;5.108;2024-02-21T08:15:55;18.05;;;10.15;;
69912;SDS011;57198;52.082;5.108;2024-02-21T08:18:23;14.85;;;8.90;;
69912;SDS011;57198;52.082;5.108;2024-02-21T08:20:51;16.38;;;9.55;;
69912;SDS011;57198;52.082;5.108;2024-02-21T08:23:18;15.10;;;8.27;;
69912;SDS011;57198;52.082;5.108;2024-02-21T08:25:46;14.93;;;7.28;;
69912;SDS011;57198;52.082;5.108;2024-02-21T08:28:13;15.85;;;8.63;;
69912;SDS011;57198;52.082;5.108;2024-02-21T08:30:41;13.93;;;8.23;;
69912;SDS011;57198;52.082;5.108;2024-02-21T08:33:15;20.10;;;10.07;;
69912;SDS011;57198;52.082;5.108;2024-02-21T08:35:46;18.50;;;8.45;;
69912;SDS011;57198;52.082;5.108;2024-02-21T08:38:13;17.25;;;10.40;;
69912;SDS011;57198;52.082;5.108;2024-02-21T08:40:40;17.90;;;10.55;;
69912;SDS011;57198;52.082;5.108;2024-02-21T08:43:08;10.73;;;7.88;;
69912;SDS011;57198;52.082;5.108;2024-02-21T08:45:35;24.75;;;10.15;;
69912;SDS011;57198;52.082;5.108;2024-02-21T08:48:03;18.27;;;11.02;;
69912;SDS011;57198;52.082;5.108;2024-02-21T08:50:30;17.45;;;10.55;;
69912;SDS011;57198;52.082;5.108;2024-02-21T08:52:58;12.77;;;8.68;;
69912;SDS011;57198;52.082;5.108;2024-02-21T08:55:26;16.73;;;9.57;;
69912;SDS011;57198;52.082;5.108;2024-02-21T08:57:53;12.80;;;9.05;;
69912;SDS011;57198;52.082;5.108;2024-02-21T09:00:20;17.23;;;9.35;;
69912;SDS011;57198;52.082;5.108;2024-02-21T09:02:53;17.77;;;9.80;;
69912;SDS011;57198;52.082;5.108;2024-02-21T09:05:22;20.30;;;9.68;;
69912;SDS011;57198;52.082;5.108;2024-02-21T09:07:51;15.45;;;9.85;;
69912;SDS011;57198;52.082;5.108;2024-02-21T09:10:19;18.45;;;9.73;;
69912;SDS011;57198;52.082;5.108;2024-02-21T09:12:47;18.23;;;9.43;;
69912;SDS011;57198;52.082;5.108;2024-02-21T09:15:14;18.30;;;9.60;;
69912;SDS011;57198;52.082;5.108;2024-02-21T09:17:41;13.95;;;8.02;;
69912;SDS011;57198;52.082;5.108;2024-02-21T09:20:09;11.90;;;8.20;;
69912;SDS011;57198;52.082;5.108;2024-02-21T09:22:38;12.90;;;7.22;;
69912;SDS011;57198;52.082;5.108;2024-02-21T09:25:07;14.27;;;6.65;;
69912;SDS011;57198;52.082;5.108;2024-02-21T09:27:36;13.02;;;6.75;;
69912;SDS011;57198;52.082;5.108;2024-02-21T09:30:04;13.18;;;8.20;;
69912;SDS011;57198;52.082;5.108;2024-02-21T09:32:32;13.57;;;7.88;;
69912;SDS011;57198;52.082;5.108;2024-02-21T09:34:59;17.70;;;7.88;;
69912;SDS011;57198;52.082;5.108;2024-02-21T09:37:28;13.40;;;7.65;;
69912;SDS011;57198;52.082;5.108;2024-02-21T09:39:56;14.00;;;8.05;;
69912;SDS011;57198;52.082;5.108;2024-02-21T09:42:25;18.58;;;8.60;;
69912;SDS011;57198;52.082;5.108;2024-02-21T09:44:54;15.50;;;8.60;;
69912;SDS011;57198;52.082;5.108;2024-02-21T09:47:26;13.98;;;7.57;;
69912;SDS011;57198;52.082;5.108;2024-02-21T09:49:58;13.38;;;6.95;;
69912;SDS011;57198;52.082;5.108;2024-02-21T09:52:26;12.77;;;7.05;;
69912;SDS011;57198;52.082;5.108;2024-02-21T09:54:54;12.27;;;6.72;;
69912;SDS011;57198;52.082;5.108;2024-02-21T09:57:23;11.70;;;7.03;;
69912;SDS011;57198;52.082;5.108;2024-02-21T09:59:51;9.40;;;7.20;;
69912;SDS011;57198;52.082;5.108;2024-02-21T10:02:18;8.77;;;5.40;;
69912;SDS011;57198;52.082;5.108;2024-02-21T10:04:46;10.60;;;6.95;;
69912;SDS011;57198;52.082;5.108;2024-02-21T10:07:14;10.35;;;7.05;;
69912;SDS011;57198;52.082;5.108;2024-02-21T10:09:41;9.38;;;5.88;;
69912;SDS011;57198;52.082;5.108;2024-02-21T10:12:11;12.00;;;6.60;;
69912;SDS011;57198;52.082;5.108;2024-02-21T10:14:40;11.27;;;5.95;;
69912;SDS011;57198;52.082;5.108;2024-02-21T10:17:08;9.93;;;6.45;;
69912;SDS011;57198;52.082;5.108;2024-02-21T10:19:37;8.32;;;5.78;;
69912;SDS011;57198;52.082;5.108;2024-02-21T10:22:07;10.15;;;6.00;;
69912;SDS011;57198;52.082;5.108;2024-02-21T10:24:36;10.18;;;6.15;;
69912;SDS011;57198;52.082;5.108;2024-02-21T10:27:06;8.10;;;5.88;;
69912;SDS011;57198;52.082;5.108;2024-02-21T10:29:38;11.07;;;5.60;;
69912;SDS011;57198;52.082;5.108;2024-02-21T10:32:13;8.38;;;6.05;;
69912;SDS011;57198;52.082;5.108;2024-02-21T10:34:41;8.07;;;5.75;;
69912;SDS011;57198;52.082;5.108;2024-02-21T10:37:10;9.77;;;5.88;;
69912;SDS011;57198;52.082;5.108;2024-02-21T10:39:39;8.23;;;6.13;;
69912;SDS011;57198;52.082;5.108;2024-02-21T10:42:07;7.60;;;5.80;;
69912;SDS011;57198;52.082;5.108;2024-02-21T10:44:39;7.63;;;5.28;;
69912;SDS011;57198;52.082;5.108;2024-02-21T10:47:08;5.82;;;5.22;;
69912;SDS011;57198;52.082;5.108;2024-02-21T10:49:40;7.88;;;4.97;;
69912;SDS011;57198;52.082;5.108;2024-02-21T10:52:14;7.75;;;5.18;;
69912;SDS011;57198;52.082;5.108;2024-02-21T10:54:45;5.65;;;4.80;;
69912;SDS011;57198;52.082;5.108;2024-02-21T10:57:13;5.85;;;4.47;;
69912;SDS011;57198;52.082;5.108;2024-02-21T10:59:41;6.55;;;4.82;;
69912;SDS011;57198;52.082;5.108;2024-02-21T11:02:09;10.45;;;4.55;;
69912;SDS011;57198;52.082;5.108;2024-02-21T11:04:37;10.15;;;6.00;;
69912;SDS011;57198;52.082;5.108;2024-02-21T11:07:05;8.40;;;5.68;;
69912;SDS011;57198;52.082;5.108;2024-02-21T11:09:37;7.55;;;5.60;;
69912;SDS011;57198;52.082;5.108;2024-02-21T11:12:05;8.25;;;6.15;;
69912;SDS011;57198;52.082;5.108;2024-02-21T11:14:33;6.68;;;5.97;;
69912;SDS011;57198;52.082;5.108;2024-02-21T11:17:18;7.43;;;5.97;;
69912;SDS011;57198;52.082;5.108;2024-02-21T11:19:48;5.60;;;4.93;;
69912;SDS011;57198;52.082;5.108;2024-02-21T11:22:16;7.80;;;5.45;;
69912;SDS011;57198;52.082;5.108;2024-02-21T11:24:44;9.20;;;6.20;;
69912;SDS011;57198;52.082;5.108;2024-02-21T11:27:21;7.15;;;6.55;;
69912;SDS011;57198;52.082;5.108;2024-02-21T11:29:56;10.38;;;6.63;;
69912;SDS011;57198;52.082;5.108;2024-02-21T11:32:24;9.65;;;6.70;;
69912;SDS011;57198;52.082;5.108;2024-02-21T11:34:55;6.88;;;5.88;;
69912;SDS011;57198;52.082;5.108;2024-02-21T11:37:28;8.77;;;6.63;;
69912;SDS011;57198;52.082;5.108;2024-02-21T11:39:56;9.70;;;5.22;;
69912;SDS011;57198;52.082;5.108;2024-02-21T11:42:26;7.20;;;6.28;;
69912;SDS011;57198;52.082;5.108;2024-02-21T11:44:55;9.05;;;6.63;;
69912;SDS011;57198;52.082;5.108;2024-02-21T11:47:23;10.18;;;7.03;;
69912;SDS011;57198;52.082;5.108;2024-02-21T11:49:51;8.55;;;6.88;;
69912;SDS011;57198;52.082;5.108;2024-02-21T11:52:22;7.55;;;6.78;;
69912;SDS011;57198;52.082;5.108;2024-02-21T11:54:51;7.35;;;5.63;;
69912;SDS011;57198;52.082;5.108;2024-02-21T11:57:21;9.20;;;6.30;;
69912;SDS011;57198;52.082;5.108;2024-02-21T11:59:50;8.73;;;6.63;;
69912;SDS011;57198;52.082;5.108;2024-02-21T12:02:24;9.52;;;6.50;;
69912;SDS011;57198;52.082;5.108;2024-02-21T12:04:52;8.30;;;6.45;;
69912;SDS011;57198;52.082;5.108;2024-02-21T12:07:21;7.20;;;5.60;;
69912;SDS011;57198;52.082;5.108;2024-02-21T12:09:50;12.77;;;6.32;;
69912;SDS011;57198;52.082;5.108;2024-02-21T12:12:19;9.98;;;6.43;;
69912;SDS011;57198;52.082;5.108;2024-02-21T12:14:53;12.43;;;6.53;;
69912;SDS011;57198;52.082;5.108;2024-02-21T12:17:21;7.88;;;5.47;;
69912;SDS011;57198;52.082;5.108;2024-02-21T12:19:49;8.98;;;6.05;;
69912;SDS011;57198;52.082;5.108;2024-02-21T12:22:20;5.85;;;5.25;;
69912;SDS011;57198;52.082;5.108;2024-02-21T12:24:47;5.53;;;4.78;;
69912;SDS011;57198;52.082;5.108;2024-02-21T12:27:15;9.35;;;6.05;;
69912;SDS011;57198;52.082;5.108;2024-02-21T12:29:43;7.05;;;6.22;;
69912;SDS011;57198;52.082;5.108;2024-02-21T12:32:10;9.30;;;5.70;;
69912;SDS011;57198;52.082;5.108;2024-02-21T12:34:38;7.43;;;5.95;;
69912;SDS011;57198;52.082;5.108;2024-02-21T12:37:19;7.90;;;6.35;;
69912;SDS011;57198;52.082;5.108;2024-02-21T12:39:48;7.85;;;5.22;;
69912;SDS011;57198;52.082;5.108;2024-02-21T12:42:15;6.25;;;5.00;;
69912;SDS011;57198;52.082;5.108;2024-02-21T12:44:44;8.38;;;5.68;;
69912;SDS011;57198;52.082;5.108;2024-02-21T12:47:12;6.93;;;4.82;;
69912;SDS011;57198;52.082;5.108;2024-02-21T12:49:40;6.65;;;4.68;;
69912;SDS011;57198;52.082;5.108;2024-02-21T12:52:11;6.68;;;4.75;;
69912;SDS011;57198;52.082;5.108;2024-02-21T12:54:40;9.73;;;4.95;;
69912;SDS011;57198;52.082;5.108;2024-02-21T12:57:08;6.95;;;4.85;;
69912;SDS011;57198;52.082;5.108;2024-02-21T12:59:36;9.10;;;5.30;;
69912;SDS011;57198;52.082;5.108;2024-02-21T13:02:03;7.07;;;5.00;;
69912;SDS011;57198;52.082;5.108;2024-02-21T13:04:31;5.60;;;4.90;;
69912;SDS011;57198;52.082;5.108;2024-02-21T13:06:58;7.53;;;5.00;;
69912;SDS011;57198;52.082;5.108;2024-02-21T13:09:25;10.52;;;5.45;;
69912;SDS011;57198;52.082;5.108;2024-02-21T13:11:53;7.80;;;5.03;;
69912;SDS011;57198;52.082;5.108;2024-02-21T13:14:20;5.88;;;3.90;;
69912;SDS011;57198;52.082;5.108;2024-02-21T13:16:49;6.82;;;4.63;;
69912;SDS011;57198;52.082;5.108;2024-02-21T13:19:16;6.85;;;4.70;;
69912;SDS011;57198;52.082;5.108;2024-02-21T13:21:45;8.02;;;4.20;;
69912;SDS011;57198;52.082;5.108;2024-02-21T13:24:12;6.57;;;4.15;;
69912;SDS011;57198;52.082;5.108;2024-02-21T13:26:39;9.02;;;4.28;;
69912;SDS011;57198;52.082;5.108;2024-02-21T13:29:07;9.60;;;4.55;;
69912;SDS011;57198;52.082;5.108;2024-02-21T13:31:35;7.97;;;4.50;;
69912;SDS011;57198;52.082;5.108;2024-02-21T13:34:02;7.45;;;3.90;;
69912;SDS011;57198;52.082;5.108;2024-02-21T13:36:30;9.40;;;4.57;;
69912;SDS011;57198;52.082;5.108;2024-02-21T13:38:57;6.28;;;4.38;;
69912;SDS011;57198;52.082;5.108;2024-02-21T13:41:25;6.07;;;3.88;;
69912;SDS011;57198;52.082;5.108;2024-02-21T13:43:53;5.68;;;4.25;;
69912;SDS011;57198;52.082;5.108;2024-02-21T13:46:20;9.50;;;5.30;;
69912;SDS011;57198;52.082;5.108;2024-02-21T13:48:48;15.13;;;4.68;;
69912;SDS011;57198;52.082;5.108;2024-02-21T13:51:16;8.18;;;5.00;;
69912;SDS011;57198;52.082;5.108;2024-02-21T13:53:44;5.97;;;4.32;;
69912;SDS011;57198;52.082;5.108;2024-02-21T13:56:11;7.72;;;4.75;;
69912;SDS011;57198;52.082;5.108;2024-02-21T13:58:39;6.90;;;5.10;;
69912;SDS011;57198;52.082;5.108;2024-02-21T14:01:06;4.85;;;3.80;;
69912;SDS011;57198;52.082;5.108;2024-02-21T14:03:33;7.13;;;4.40;;
69912;SDS011;57198;52.082;5.108;2024-02-21T14:06:01;8.55;;;4.30;;
69912;SDS011;57198;52.082;5.108;2024-02-21T14:08:28;8.40;;;4.22;;
69912;SDS011;57198;52.082;5.108;2024-02-21T14:10:56;7.78;;;4.43;;
69912;SDS011;57198;52.082;5.108;2024-02-21T14:13:26;7.13;;;4.85;;
69912;SDS011;57198;52.082;5.108;2024-02-21T14:15:53;7.53;;;4.20;;
69912;SDS011;57198;52.082;5.108;2024-02-21T14:18:20;6.78;;;4.72;;
69912;SDS011;57198;52.082;5.108;2024-02-21T14:20:48;7.13;;;4.63;;
69912;SDS011;57198;52.082;5.108;2024-02-21T14:23:15;5.50;;;3.92;;
69912;SDS011;57198;52.082;5.108;2024-02-21T14:25:43;9.63;;;5.53;;
69912;SDS011;57198;52.082;5.108;2024-02-21T14:28:10;10.32;;;5.05;;
69912;SDS011;57198;52.082;5.108;2024-02-21T14:30:38;5.38;;;4.30;;
69912;SDS011;57198;52.082;5.108;2024-02-21T14:33:05;5.82;;;3.90;;
69912;SDS011;57198;52.082;5.108;2024-02-21T14:35:34;8.88;;;5.65;;
69912;SDS011;57198;52.082;5.108;2024-02-21T14:38:02;7.43;;;4.85;;
69912;SDS011;57198;52.082;5.108;2024-02-21T14:40:29;4.85;;;4.05;;
69912;SDS011;57198;52.082;5.108;2024-02-21T14:42:57;6.88;;;4.57;;
69912;SDS011;57198;52.082;5.108;2024-02-21T14:45:24;5.60;;;3.42;;